PN04 weather

Strittmatter Airport
Ebensburg, Pennsylvania, United States

Public forecast

Using degrees Fahrenheit for public forecast. Weather courtesy of forecast.io.

Closest aviation weather report (METAR) to Strittmatter Airport

Closest report is John Murtha Johnstown Cambria County Airport, 15.3 nm (28.2 km) SSW. Retrieved 2019/12/13 03:54 UTC (58 minutes ago):

KJST 130354Z AUTO 17011G17KT 10SM CLR M04/M09 A3034 RMK AO2 SLP305 T10391089

Closest aviation forecast (TAF) to Strittmatter Airport

Closest forecast is John Murtha Johnstown Cambria County Airport, 15.3 nm (28.2 km) SSW. Retrieved 2019-12-13 00:36 UTC (4 hours ago):

TAF KJST 122335Z 1300/1324 16010G18KT P6SM BKN200 FM131500 16008KT P6SM OVC030